Mudah untuk digunakan

vPilot, dan Squawkbox

VATSIM memiliki 3 pilot client yang berbeda. Semuanya memberikan kemudahan yang sama bagi pengguna untuk online ke dalam simulasi VATSIM. Semuanya memiliki panduan yang lengkap untuk membantu Anda menggunakan aplikasi ini.

Radar client yang seperti aslinya

EuroScope & VRC

VATSIM memiliki radar client yang sangat advanced karena mensimulasikan secara nyata bagaimana seorang ATC didunia nyata. Walaupun dikatakan advanced, kedua radar client ini sangat mudah untuk digunakan. Dan hal menarik lainnya, VATSIM menggunakan ATIS dalam bentuk suara!

Dengan VATSIM, Anda dapat belajar lebih banyak tentang aviasi.
Anda juga dapat berdiskusi dengan pencinta aviasi lainnya.

Pengalaman Yang Tidak Terlupakan

Aktifitas Terkini

Tidak ada ATC dan pilot yang online!

*Informasi ini bisa saja tidak mutakhir.

METAR

Nama Bandara - Lokasi (ICAO) METAR
Sultan Hasanuddin - Makassar (WAAA)METAR WAAA 220400Z 28008KT 9999 FEW020 32/18 Q1011|NOSIG=
I Gusti Ngurah Rai - Denpasar (WADD)METAR WADD 220400Z 12013KT 9999 FEW016 27/23 Q1014|NOSIG=
Ahmad Yani - Semarang (WAHS)METAR WAHS 220400Z 12009KT 070V170 8000 FEW014 32/19 Q1013=
Juanda - Surabaya (WARR)METAR WARR 220400Z 12010KT 9999 FEW020 30/21 Q1013|NOSIG=
Soekarno Hatta - Jakarta (WIII)METAR WIII 220400Z 06007KT 9999 FEW020 31/21 Q1012|NOSIG=
Halim Perdana Kusuma - Jakarta (WIHH)METAR WIHH 220400Z 13005KT 6000 FEW020 32/21 Q1012|NOSIG=
Kualanamu International Airport - Deli Serdang (WIMM)METAR WIMM 220400Z 00000KT 9999 SCT017 30/25 Q1011|NOSIG=

*METAR didapatkan dari BMKG. Informasi ini bisa saja tidak mutakhir.

VATSIM Indonesia vACC VATSIM South East Asia VATSIM Asia